createdAt,value
2022-12-07T06:39:17.220Z,84.40
2022-12-07T06:42:18.885Z,84.40
2022-12-07T06:45:20.545Z,84.30
2022-12-07T06:48:22.362Z,84.20
2022-12-07T06:51:24.305Z,84.10
2022-12-07T06:54:25.997Z,84.20
2022-12-07T06:57:27.843Z,84.20
2022-12-07T07:00:29.978Z,84.30
2022-12-07T07:03:31.691Z,84.40
2022-12-07T07:06:33.558Z,84.40
2022-12-07T07:09:35.379Z,84.40
2022-12-07T07:12:37.051Z,84.40
2022-12-07T07:15:38.894Z,84.40
2022-12-07T07:18:40.663Z,84.40
2022-12-07T07:21:42.323Z,84.30
2022-12-07T07:24:44.011Z,84.30
2022-12-07T07:27:45.923Z,84.20
2022-12-07T07:30:47.685Z,84.10
2022-12-07T07:33:49.399Z,84.10
2022-12-07T07:36:51.084Z,84.20
2022-12-07T07:39:52.758Z,84.10
2022-12-07T07:42:54.731Z,84.10
2022-12-07T07:45:56.435Z,84.10
2022-12-07T07:48:58.346Z,84.10
2022-12-07T07:52:00.057Z,84.00
2022-12-07T07:55:01.729Z,83.90
2022-12-07T07:58:03.677Z,84.00
2022-12-07T08:01:06.613Z,83.90
2022-12-07T08:04:08.416Z,84.00
2022-12-07T08:07:10.140Z,84.00
2022-12-07T08:10:13.121Z,83.90
2022-12-07T08:13:16.935Z,83.90
2022-12-07T08:16:18.669Z,83.90
2022-12-07T08:19:20.382Z,83.80
2022-12-07T08:22:22.051Z,83.70
2022-12-07T08:25:23.850Z,83.70
2022-12-07T08:28:25.653Z,83.60
2022-12-07T08:31:28.885Z,83.40
2022-12-07T08:34:30.671Z,83.40
2022-12-07T08:37:32.768Z,83.30
2022-12-07T08:40:34.538Z,83.20
2022-12-07T08:43:36.435Z,83.20
2022-12-07T08:46:39.370Z,83.30
2022-12-07T08:49:42.859Z,83.20
2022-12-07T08:52:44.681Z,83.10
2022-12-07T08:55:46.965Z,83.10
2022-12-07T08:58:48.993Z,83.00
2022-12-07T09:01:50.792Z,83.00
2022-12-07T09:04:52.531Z,82.90
2022-12-07T09:07:56.659Z,82.90
2022-12-07T09:10:58.609Z,82.80
2022-12-07T09:14:00.285Z,82.70
2022-12-07T09:17:12.136Z,82.50
2022-12-07T09:20:14.080Z,82.30
2022-12-07T09:23:15.744Z,82.20
2022-12-07T09:26:17.448Z,82.10
2022-12-07T09:29:19.276Z,82.00
2022-12-07T09:32:21.064Z,82.00
2022-12-07T09:35:24.404Z,82.00
2022-12-07T09:38:27.366Z,82.00
2022-12-07T09:41:29.042Z,82.10
2022-12-07T09:44:30.736Z,82.00
2022-12-07T09:47:34.936Z,82.10
2022-12-07T09:50:36.828Z,82.00
2022-12-07T09:53:38.799Z,81.90
2022-12-07T09:56:40.520Z,81.70
2022-12-07T09:59:42.595Z,81.60
2022-12-07T10:03:01.366Z,81.50
2022-12-07T10:06:03.101Z,81.30
2022-12-07T10:09:13.680Z,81.20
2022-12-07T10:12:15.361Z,81.10
2022-12-07T10:15:17.071Z,81.30
2022-12-07T10:18:44.854Z,81.20
2022-12-07T10:22:14.025Z,81.00
2022-12-07T10:25:22.258Z,80.80
2022-12-07T10:28:24.102Z,80.80
2022-12-07T10:31:25.880Z,80.50
2022-12-07T10:34:41.639Z,80.40
2022-12-07T10:37:46.378Z,80.00
2022-12-07T10:40:48.091Z,80.00
2022-12-07T10:43:51.781Z,79.80
2022-12-07T10:47:08.845Z,80.00
2022-12-07T10:50:29.431Z,80.00
2022-12-07T10:54:05.389Z,80.20
2022-12-07T10:57:15.447Z,80.20
2022-12-07T11:00:23.436Z,80.10
2022-12-07T11:03:38.925Z,79.90
2022-12-07T11:06:55.987Z,79.40
2022-12-07T11:10:08.839Z,79.10
2022-12-07T11:13:28.380Z,79.10
2022-12-07T11:16:49.317Z,79.10
2022-12-07T11:20:00.207Z,79.10
2022-12-07T11:23:07.593Z,79.10
2022-12-07T11:26:27.319Z,79.00
2022-12-07T11:29:41.795Z,78.90
2022-12-07T11:33:03.521Z,78.70
2022-12-07T11:36:14.220Z,78.70
2022-12-07T11:39:22.020Z,78.70
2022-12-07T11:42:28.551Z,78.60
2022-12-07T11:45:31.965Z,78.50
2022-12-07T11:48:55.461Z,78.30
2022-12-07T11:51:59.611Z,78.00
2022-12-07T11:55:01.332Z,77.90
2022-12-07T11:58:23.767Z,77.80
2022-12-07T12:01:28.532Z,77.70
2022-12-07T12:04:32.463Z,77.80
2022-12-07T12:11:19.350Z,77.80
2022-12-07T12:18:07.718Z,77.70
2022-12-07T12:21:19.703Z,77.60
2022-12-07T12:24:24.737Z,77.60
2022-12-07T12:27:29.791Z,77.90
2022-12-07T12:30:36.997Z,78.00
2022-12-07T12:33:38.918Z,78.20
2022-12-07T12:36:44.683Z,78.30
2022-12-07T12:40:15.090Z,78.30
2022-12-07T12:43:53.411Z,78.20
2022-12-07T12:47:02.909Z,78.10
2022-12-07T12:50:38.392Z,77.80
2022-12-07T12:53:40.047Z,77.30
2022-12-07T12:56:44.733Z,77.10
2022-12-07T12:59:52.336Z,76.90
2022-12-07T13:02:57.520Z,76.40
2022-12-07T13:06:25.738Z,76.20
2022-12-07T13:09:29.430Z,75.80
2022-12-07T13:12:31.077Z,75.70
2022-12-07T13:15:37.549Z,76.00
2022-12-07T13:18:39.674Z,76.40
2022-12-07T13:21:41.885Z,76.40
2022-12-07T13:24:43.747Z,76.30
2022-12-07T13:27:51.867Z,76.40
2022-12-07T13:31:29.162Z,76.10
2022-12-07T13:34:41.129Z,75.80
2022-12-07T13:37:42.887Z,75.40
2022-12-07T13:40:44.617Z,75.30
2022-12-07T13:43:51.990Z,75.30
2022-12-07T13:47:15.574Z,75.20
2022-12-07T13:50:28.184Z,75.30
2022-12-07T13:53:31.639Z,75.10
2022-12-07T13:56:34.941Z,75.30
2022-12-07T13:59:38.560Z,75.50
2022-12-07T14:02:54.607Z,75.40
2022-12-07T14:06:14.544Z,75.60
2022-12-07T14:09:23.405Z,76.00
2022-12-07T14:12:26.044Z,76.10
2022-12-07T14:15:32.175Z,76.00
2022-12-07T14:18:38.495Z,76.10
2022-12-07T14:21:40.153Z,76.30
2022-12-07T14:24:43.347Z,76.20
2022-12-07T14:27:56.484Z,76.10
2022-12-07T14:30:59.374Z,76.00
2022-12-07T14:34:01.189Z,76.00
2022-12-07T14:37:02.894Z,76.10
2022-12-07T14:40:05.592Z,76.20
2022-12-07T14:43:10.347Z,76.40
2022-12-07T14:46:12.071Z,76.50
2022-12-07T14:55:58.310Z,77.10
2022-12-07T14:59:00.124Z,77.30
2022-12-07T15:02:01.821Z,77.30
2022-12-07T15:05:03.966Z,77.20
2022-12-07T15:08:06.112Z,77.30
2022-12-07T15:11:10.199Z,77.40
2022-12-07T15:14:13.276Z,77.60
2022-12-07T15:17:26.374Z,77.80
2022-12-07T15:20:31.476Z,77.80
2022-12-07T15:23:33.223Z,78.00
2022-12-07T15:26:35.000Z,78.10
2022-12-07T15:29:36.822Z,78.40
2022-12-07T15:32:38.597Z,78.50
2022-12-07T15:35:44.091Z,78.80
2022-12-07T15:39:12.486Z,78.80
2022-12-07T15:42:07.499Z,79.00
2022-12-07T15:45:10.079Z,79.10
2022-12-07T15:48:27.806Z,79.30
2022-12-07T15:51:30.199Z,79.50
2022-12-07T15:54:33.205Z,79.50
2022-12-07T15:57:36.440Z,79.60
2022-12-07T16:00:38.202Z,79.70
2022-12-07T16:03:39.873Z,79.60
2022-12-07T16:06:42.130Z,79.40
2022-12-07T16:09:44.417Z,79.20
2022-12-07T16:12:46.128Z,79.00
2022-12-07T16:15:48.112Z,79.10
2022-12-07T16:18:50.282Z,79.10
2022-12-07T16:21:52.132Z,79.10
2022-12-07T16:24:53.782Z,79.30
2022-12-07T16:27:55.573Z,79.40
2022-12-07T16:31:16.952Z,79.50
2022-12-07T16:34:18.761Z,79.60
2022-12-07T16:37:20.441Z,79.70
2022-12-07T16:40:22.142Z,79.70
2022-12-07T16:43:24.042Z,79.60
2022-12-07T16:46:25.790Z,79.50
2022-12-07T16:49:27.695Z,79.40
2022-12-07T16:52:29.376Z,79.40
2022-12-07T16:55:31.058Z,79.50
2022-12-07T16:58:32.936Z,79.80
2022-12-07T17:01:35.480Z,79.80
2022-12-07T17:04:39.214Z,79.90
2022-12-07T17:07:41.267Z,79.80
2022-12-07T17:10:43.634Z,80.00
2022-12-07T17:14:04.305Z,80.00
2022-12-07T17:17:05.984Z,80.10
2022-12-07T17:20:08.419Z,80.20
2022-12-07T17:23:10.101Z,80.30
2022-12-07T17:26:14.271Z,80.30
2022-12-07T17:29:16.947Z,80.40
2022-12-07T17:32:18.608Z,80.50
2022-12-07T17:35:20.271Z,80.50
2022-12-07T17:38:21.953Z,80.60
2022-12-07T17:41:47.464Z,80.90
2022-12-07T17:44:49.171Z,81.00
2022-12-07T17:47:51.046Z,81.20
2022-12-07T17:51:11.495Z,81.30
2022-12-07T17:54:13.241Z,81.40
2022-12-07T17:57:14.913Z,81.20
2022-12-07T18:00:17.923Z,81.30
2022-12-07T18:03:19.649Z,81.40
2022-12-07T18:06:21.385Z,81.50
2022-12-07T18:09:23.586Z,81.50
2022-12-07T18:12:25.253Z,81.60
2022-12-07T18:15:26.910Z,81.80
2022-12-07T18:18:28.917Z,81.90
2022-12-07T18:21:31.124Z,81.80
2022-12-07T18:24:36.793Z,81.80
2022-12-07T18:27:39.083Z,82.10
2022-12-07T18:31:13.116Z,82.20
2022-12-07T18:34:12.170Z,82.40
2022-12-07T18:37:13.926Z,82.60
2022-12-07T18:40:15.732Z,82.50
2022-12-07T18:43:18.824Z,82.50
2022-12-07T18:46:21.253Z,82.50
2022-12-07T18:49:23.289Z,82.60
2022-12-07T18:52:24.951Z,82.80
2022-12-07T18:55:27.293Z,82.80
2022-12-07T18:58:29.149Z,82.70
2022-12-07T19:01:31.281Z,82.60
2022-12-07T19:04:33.133Z,82.40
2022-12-07T19:07:35.076Z,82.50
2022-12-07T19:10:36.789Z,82.40
2022-12-07T19:13:38.451Z,82.40
2022-12-07T19:16:41.189Z,82.30
2022-12-07T19:19:46.916Z,82.30
2022-12-07T19:22:48.587Z,82.20
2022-12-07T19:25:50.310Z,82.20
2022-12-07T19:28:52.006Z,82.20
2022-12-07T19:31:54.049Z,82.40
2022-12-07T19:34:56.254Z,82.40
2022-12-07T19:37:58.214Z,82.60
2022-12-07T19:41:32.395Z,82.60
2022-12-07T19:44:34.285Z,82.60
2022-12-07T19:47:35.943Z,82.70
2022-12-07T19:50:37.618Z,82.60
2022-12-07T19:53:39.284Z,82.60
2022-12-07T19:56:41.211Z,82.70
2022-12-07T19:59:43.051Z,82.80
2022-12-07T20:02:45.626Z,82.90
2022-12-07T20:05:47.747Z,83.00
2022-12-07T20:08:49.769Z,83.00
2022-12-07T20:12:10.007Z,83.00
2022-12-07T20:15:11.724Z,83.00
2022-12-07T20:18:13.444Z,83.10
2022-12-07T20:21:15.175Z,83.10
2022-12-07T20:24:18.758Z,83.10
2022-12-07T20:27:20.525Z,83.10
2022-12-07T20:30:22.468Z,83.20
2022-12-07T20:33:24.233Z,83.30
2022-12-07T20:36:29.209Z,83.40
2022-12-07T20:39:33.824Z,83.60
2022-12-07T20:42:38.503Z,83.50
2022-12-07T20:45:47.073Z,83.70
2022-12-07T20:48:49.026Z,83.70
2022-12-07T20:51:51.463Z,83.70
2022-12-07T20:54:53.130Z,83.70
2022-12-07T20:57:55.228Z,83.60
2022-12-07T21:01:03.355Z,83.90
2022-12-07T21:04:05.145Z,84.00
2022-12-07T21:07:06.840Z,84.00
2022-12-07T21:10:08.967Z,83.90
2022-12-07T21:13:10.644Z,84.00
2022-12-07T21:16:26.539Z,84.00
2022-12-07T21:19:28.506Z,84.10
2022-12-07T21:22:30.170Z,84.20
2022-12-07T21:25:31.838Z,84.10
2022-12-07T21:28:33.905Z,84.10
2022-12-07T21:31:35.779Z,84.20
2022-12-07T21:34:37.587Z,84.30
2022-12-07T21:37:39.845Z,84.40
2022-12-07T21:40:41.667Z,84.50
2022-12-07T21:43:43.572Z,84.60
2022-12-07T21:46:45.479Z,84.70
2022-12-07T21:49:47.482Z,84.70
2022-12-07T21:52:49.176Z,84.80
2022-12-07T21:55:50.903Z,84.70
2022-12-07T21:58:53.351Z,84.80
2022-12-07T22:01:55.388Z,84.80
2022-12-07T22:04:57.202Z,84.90
2022-12-07T22:07:59.008Z,84.90
2022-12-07T22:11:01.792Z,84.90
2022-12-07T22:14:23.016Z,84.80
2022-12-07T22:17:24.670Z,84.80
2022-12-07T22:20:26.423Z,84.90
2022-12-07T22:23:28.083Z,85.00
2022-12-07T22:26:29.848Z,85.10
2022-12-07T22:29:31.683Z,85.10
2022-12-07T22:32:48.287Z,85.20
2022-12-07T22:35:53.750Z,85.30
2022-12-07T22:38:55.623Z,85.40
2022-12-07T22:41:57.323Z,85.30
2022-12-07T22:44:58.982Z,85.30
2022-12-07T22:48:00.688Z,85.50
2022-12-07T22:51:02.366Z,85.50
2022-12-07T22:54:05.639Z,85.80
